Time;durP1;ratioP1;P1;durP2;ratioP2;P2;SDS_P1;SDS_P2;PMS_P1;PMS_P2;Temp;Humidity;BMP_temperature;BMP_pressure;BME280_temperature;BME280_humidity;BME280_pressure;Samples;Min_cycle;Max_cycle;Signal;HPM_P1;HPM_P2
2022/03/18 00:02:02;;;;;;;13.23;2.88;;;;;;;;;;10283361;28;20049;-73
2022/03/18 00:07:04;;;;;;;11.57;2.63;;;;;;;;;;10276662;28;20047;-73
2022/03/18 00:12:06;;;;;;;10.63;3.00;;;;;;;;;;10276849;28;20054;-73
2022/03/18 00:17:08;;;;;;;15.25;3.40;;;;;;;;;;10277742;28;20053;-72
2022/03/18 00:22:12;;;;;;;9.93;3.25;;;;;;;;;;10280580;28;20051;-72
2022/03/18 00:27:13;;;;;;;9.10;3.17;;;;;;;;;;10277068;28;20054;-72
2022/03/18 00:32:15;;;;;;;11.48;2.90;;;;;;;;;;10274382;28;20065;-72
2022/03/18 00:37:16;;;;;;;9.95;3.38;;;;;;;;;;10277901;28;20507;-72
2022/03/18 00:42:18;;;;;;;11.15;3.38;;;;;;;;;;10278306;28;20054;-72
2022/03/18 00:52:40;;;;;;;7.97;2.88;;;;;;;;;;10279989;28;20101;-72
2022/03/18 00:57:41;;;;;;;14.55;4.00;;;;;;;;;;10278067;28;20055;-72
2022/03/18 01:02:42;;;;;;;11.43;3.22;;;;;;;;;;10283900;28;20043;-72
2022/03/18 01:07:44;;;;;;;9.82;3.17;;;;;;;;;;10288747;28;20042;-72
2022/03/18 01:12:45;;;;;;;11.55;2.72;;;;;;;;;;10279817;28;20062;-72
2022/03/18 01:17:47;;;;;;;11.40;2.95;;;;;;;;;;10273692;28;20144;-72
2022/03/18 01:22:48;;;;;;;10.90;3.00;;;;;;;;;;10262945;28;20043;-72
2022/03/18 01:27:49;;;;;;;6.80;2.67;;;;;;;;;;10277693;28;20779;-71
2022/03/18 01:32:51;;;;;;;7.15;2.35;;;;;;;;;;10282097;28;20784;-71
2022/03/18 01:37:52;;;;;;;6.63;2.15;;;;;;;;;;10273077;28;20055;-71
2022/03/18 01:42:54;;;;;;;11.52;2.78;;;;;;;;;;10279594;28;20043;-71
2022/03/18 01:47:55;;;;;;;11.80;2.97;;;;;;;;;;10275102;28;20134;-70
2022/03/18 01:52:57;;;;;;;7.47;2.42;;;;;;;;;;10279018;28;20051;-71
2022/03/18 01:57:59;;;;;;;9.82;2.80;;;;;;;;;;10273334;28;20557;-71
2022/03/18 02:03:00;;;;;;;6.63;2.63;;;;;;;;;;10282546;28;20046;-71
2022/03/18 02:08:06;;;;;;;9.88;2.80;;;;;;;;;;10273002;28;20126;-71
2022/03/18 02:13:08;;;;;;;8.82;2.45;;;;;;;;;;10276834;28;20047;-71
2022/03/18 02:18:09;;;;;;;8.75;2.67;;;;;;;;;;10279915;28;20076;-71
2022/03/18 02:23:11;;;;;;;11.75;3.15;;;;;;;;;;10288554;28;20054;-71
2022/03/18 02:28:12;;;;;;;5.88;2.33;;;;;;;;;;10290704;28;20046;-72
2022/03/18 02:33:14;;;;;;;7.03;2.30;;;;;;;;;;10286089;28;20133;-71
2022/03/18 02:38:15;;;;;;;5.65;2.20;;;;;;;;;;10285276;28;20411;-71
2022/03/18 02:43:16;;;;;;;10.30;2.35;;;;;;;;;;10280914;28;20050;-71
2022/03/18 02:48:18;;;;;;;9.02;2.63;;;;;;;;;;10280099;28;20129;-71
2022/03/18 02:53:19;;;;;;;8.35;2.00;;;;;;;;;;10279589;28;20130;-71
2022/03/18 02:58:21;;;;;;;9.82;2.70;;;;;;;;;;10309453;28;20049;-68
2022/03/18 03:03:22;;;;;;;8.65;2.85;;;;;;;;;;10297160;28;20043;-71
2022/03/18 03:08:24;;;;;;;8.77;3.47;;;;;;;;;;10300583;28;20074;-70
2022/03/18 03:13:25;;;;;;;7.80;3.38;;;;;;;;;;10305487;28;20051;-70
2022/03/18 03:18:28;;;;;;;8.90;2.67;;;;;;;;;;10294221;28;20061;-70
2022/03/18 03:23:29;;;;;;;13.10;3.42;;;;;;;;;;10302424;28;20043;-72
2022/03/18 03:28:31;;;;;;;7.80;2.45;;;;;;;;;;10309218;28;20495;-71
2022/03/18 03:33:33;;;;;;;7.18;2.65;;;;;;;;;;10302462;28;20062;-71
2022/03/18 03:38:34;;;;;;;14.30;2.80;;;;;;;;;;10304558;28;20057;-70
2022/03/18 03:43:36;;;;;;;7.82;2.70;;;;;;;;;;10305366;28;20039;-70
2022/03/18 03:48:37;;;;;;;9.18;2.95;;;;;;;;;;10307287;28;20153;-70
2022/03/18 03:53:38;;;;;;;9.18;2.60;;;;;;;;;;10309277;28;20053;-70
2022/03/18 03:58:40;;;;;;;6.63;2.58;;;;;;;;;;10306993;28;20038;-69
2022/03/18 04:03:41;;;;;;;8.23;2.58;;;;;;;;;;10306487;28;20038;-69
2022/03/18 04:08:42;;;;;;;6.38;2.67;;;;;;;;;;10301395;28;20046;-69
2022/03/18 04:13:44;;;;;;;8.63;3.38;;;;;;;;;;10315166;28;20417;-70
2022/03/18 04:18:45;;;;;;;14.10;3.17;;;;;;;;;;10301989;28;20046;-70
2022/03/18 04:23:46;;;;;;;8.20;2.50;;;;;;;;;;10309548;28;20057;-70
2022/03/18 04:28:52;;;;;;;7.93;2.38;;;;;;;;;;10303732;28;20757;-69
2022/03/18 04:33:53;;;;;;;8.02;2.70;;;;;;;;;;10296899;28;20059;-70
2022/03/18 04:38:55;;;;;;;6.70;2.40;;;;;;;;;;10295846;28;20057;-70
2022/03/18 04:43:56;;;;;;;10.60;2.22;;;;;;;;;;10296718;28;20046;-70
2022/03/18 04:48:58;;;;;;;8.88;2.58;;;;;;;;;;10292081;28;20105;-69
2022/03/18 04:53:59;;;;;;;13.40;2.50;;;;;;;;;;10268356;28;20612;-71
2022/03/18 04:59:01;;;;;;;9.02;2.70;;;;;;;;;;10294685;28;20054;-70
2022/03/18 05:04:02;;;;;;;6.53;2.28;;;;;;;;;;10302502;28;20053;-70
2022/03/18 05:09:04;;;;;;;7.88;2.75;;;;;;;;;;10282508;28;20051;-69
2022/03/18 05:14:05;;;;;;;8.82;2.70;;;;;;;;;;10302967;28;20050;-70
2022/03/18 05:19:07;;;;;;;6.93;2.95;;;;;;;;;;10287104;28;20050;-70
2022/03/18 05:24:09;;;;;;;9.43;2.90;;;;;;;;;;10257339;28;20122;-70
2022/03/18 05:29:11;;;;;;;8.13;2.67;;;;;;;;;;10269285;28;20136;-70
2022/03/18 05:34:13;;;;;;;6.10;2.90;;;;;;;;;;10258372;28;20058;-71
2022/03/18 05:39:14;;;;;;;9.68;2.80;;;;;;;;;;10254173;28;20432;-70
2022/03/18 05:44:15;;;;;;;14.07;3.50;;;;;;;;;;10261812;28;20503;-70
2022/03/18 05:49:18;;;;;;;10.20;2.50;;;;;;;;;;10259077;28;20561;-70
2022/03/18 05:54:20;;;;;;;11.98;3.42;;;;;;;;;;10263695;28;20049;-69
2022/03/18 05:59:22;;;;;;;9.77;3.00;;;;;;;;;;10266359;28;20058;-71
2022/03/18 06:04:25;;;;;;;9.32;2.90;;;;;;;;;;10278294;28;20047;-70
2022/03/18 06:14:47;;;;;;;7.43;2.67;;;;;;;;;;10266001;28;20043;-70
2022/03/18 06:19:48;;;;;;;6.00;2.70;;;;;;;;;;10280263;28;20061;-70
2022/03/18 06:24:50;;;;;;;13.90;3.70;;;;;;;;;;10308193;28;20058;-71
2022/03/18 06:29:51;;;;;;;6.22;2.65;;;;;;;;;;10311531;28;20137;-70
2022/03/18 06:34:54;;;;;;;9.38;2.97;;;;;;;;;;10292040;28;20058;-68
2022/03/18 06:39:55;;;;;;;7.38;3.10;;;;;;;;;;10310281;28;20475;-70
2022/03/18 06:44:57;;;;;;;15.80;3.08;;;;;;;;;;10296446;28;20046;-70
2022/03/18 06:49:59;;;;;;;13.88;3.92;;;;;;;;;;10310174;28;20046;-69
2022/03/18 06:55:01;;;;;;;8.48;2.92;;;;;;;;;;10311881;28;20043;-70
2022/03/18 07:00:03;;;;;;;12.18;4.65;;;;;;;;;;10343345;28;20429;-70
2022/03/18 07:05:05;;;;;;;10.10;3.55;;;;;;;;;;10356770;28;20046;-72
2022/03/18 07:10:08;;;;;;;11.00;3.83;;;;;;;;;;10341286;28;20049;-71
2022/03/18 07:15:09;;;;;;;15.57;4.43;;;;;;;;;;10338876;28;20050;-72
2022/03/18 07:20:12;;;;;;;10.43;3.30;;;;;;;;;;10339759;28;20128;-72
2022/03/18 07:25:14;;;;;;;17.42;4.32;;;;;;;;;;10345061;28;20448;-72
2022/03/18 07:30:15;;;;;;;12.55;4.47;;;;;;;;;;10346923;28;20595;-72
2022/03/18 07:35:17;;;;;;;15.80;4.75;;;;;;;;;;10343161;28;20046;-72
2022/03/18 07:40:19;;;;;;;13.52;4.43;;;;;;;;;;10324581;28;20048;-72
2022/03/18 07:45:21;;;;;;;13.80;4.95;;;;;;;;;;10342684;28;20406;-73
2022/03/18 07:50:24;;;;;;;16.40;4.47;;;;;;;;;;10345552;28;20042;-72
2022/03/18 07:55:27;;;;;;;14.82;3.63;;;;;;;;;;10332870;28;20128;-73
2022/03/18 08:00:29;;;;;;;11.65;3.40;;;;;;;;;;10321288;28;20619;-71
2022/03/18 08:05:31;;;;;;;17.00;3.50;;;;;;;;;;10331680;28;20048;-72
2022/03/18 08:10:32;;;;;;;10.88;3.20;;;;;;;;;;10334214;28;20417;-71
2022/03/18 08:15:34;;;;;;;15.00;3.33;;;;;;;;;;10338995;28;20046;-71
2022/03/18 08:20:40;;;;;;;11.90;3.22;;;;;;;;;;10325083;28;20049;-70
2022/03/18 08:25:41;;;;;;;11.90;3.33;;;;;;;;;;10326734;28;20045;-71
2022/03/18 08:30:43;;;;;;;14.73;3.15;;;;;;;;;;10335478;28;20052;-71
2022/03/18 08:35:45;;;;;;;8.65;3.67;;;;;;;;;;10339141;28;20065;-70
2022/03/18 08:40:46;;;;;;;10.80;3.00;;;;;;;;;;10338352;28;20049;-70
2022/03/18 08:45:49;;;;;;;11.88;3.50;;;;;;;;;;10350709;28;20058;-71
2022/03/18 08:50:51;;;;;;;15.93;4.03;;;;;;;;;;10339143;28;21883;-70
2022/03/18 08:55:54;;;;;;;11.18;3.45;;;;;;;;;;10333644;28;20042;-73
2022/03/18 09:00:56;;;;;;;13.63;3.65;;;;;;;;;;10341265;28;20129;-72
2022/03/18 09:05:57;;;;;;;11.85;3.60;;;;;;;;;;10345647;28;20058;-68
2022/03/18 09:10:59;;;;;;;15.63;4.60;;;;;;;;;;10340363;28;20050;-69
2022/03/18 09:16:01;;;;;;;12.35;4.45;;;;;;;;;;10332166;28;20050;-71
2022/03/18 09:21:22;;;;;;;14.32;4.45;;;;;;;;;;10334529;28;20053;-71
2022/03/18 09:26:24;;;;;;;16.05;4.95;;;;;;;;;;10336631;28;20034;-71
2022/03/18 09:31:25;;;;;;;11.65;4.68;;;;;;;;;;10336643;28;20519;-72
2022/03/18 09:36:27;;;;;;;15.52;4.88;;;;;;;;;;10346284;28;20049;-72
2022/03/18 09:41:30;;;;;;;16.10;5.18;;;;;;;;;;10332193;28;20136;-72
2022/03/18 09:46:32;;;;;;;18.98;5.90;;;;;;;;;;10336089;28;20058;-72
2022/03/18 09:51:34;;;;;;;14.55;5.20;;;;;;;;;;10340510;28;20071;-72
2022/03/18 09:57:02;;;;;;;16.98;5.13;;;;;;;;;;10341207;28;20054;-72
2022/03/18 10:02:21;;;;;;;13.90;5.93;;;;;;;;;;10346046;28;20057;-72
2022/03/18 10:07:24;;;;;;;17.90;6.38;;;;;;;;;;10339486;28;20057;-74
2022/03/18 10:12:30;;;;;;;16.15;5.38;;;;;;;;;;10339602;28;20042;-73
2022/03/18 10:17:47;;;;;;;13.10;4.70;;;;;;;;;;10342946;28;20122;-75
2022/03/18 10:22:48;;;;;;;15.48;6.07;;;;;;;;;;10342929;28;20061;-75
2022/03/18 10:27:50;;;;;;;14.50;5.57;;;;;;;;;;10338958;28;20038;-75
2022/03/18 10:32:52;;;;;;;14.07;6.25;;;;;;;;;;10333270;28;20054;-74
2022/03/18 10:37:54;;;;;;;17.67;5.30;;;;;;;;;;10338328;28;20038;-74
2022/03/18 10:42:59;;;;;;;17.38;7.35;;;;;;;;;;10350731;28;20096;-71
2022/03/18 10:48:09;;;;;;;13.25;5.93;;;;;;;;;;10333744;28;20050;-73
2022/03/18 10:53:12;;;;;;;17.77;5.25;;;;;;;;;;10351073;28;20047;-74
2022/03/18 10:58:15;;;;;;;15.52;4.72;;;;;;;;;;10347665;28;20042;-75
2022/03/18 11:03:17;;;;;;;17.30;5.10;;;;;;;;;;10340567;28;20562;-73
2022/03/18 11:08:23;;;;;;;18.42;6.05;;;;;;;;;;10350489;28;20129;-73
2022/03/18 11:13:27;;;;;;;18.52;5.82;;;;;;;;;;10346605;28;20142;-69
2022/03/18 11:18:29;;;;;;;14.73;5.05;;;;;;;;;;10349227;28;20054;-75
2022/03/18 11:23:31;;;;;;;16.02;5.68;;;;;;;;;;10344048;28;20501;-75
2022/03/18 11:28:33;;;;;;;13.95;4.85;;;;;;;;;;10342906;28;20053;-74
2022/03/18 11:33:35;;;;;;;13.80;5.30;;;;;;;;;;10341642;28;20552;-73
2022/03/18 11:38:46;;;;;;;16.35;5.07;;;;;;;;;;10345112;28;20061;-72
2022/03/18 11:43:50;;;;;;;17.02;5.10;;;;;;;;;;10338977;28;20041;-73
2022/03/18 11:48:52;;;;;;;11.15;4.60;;;;;;;;;;10341297;28;20066;-75
2022/03/18 11:53:54;;;;;;;16.48;4.97;;;;;;;;;;10340271;28;20038;-75
2022/03/18 11:58:56;;;;;;;13.05;4.75;;;;;;;;;;10344999;28;20038;-73
2022/03/18 12:03:57;;;;;;;12.27;4.35;;;;;;;;;;10342516;28;20276;-72
2022/03/18 12:09:00;;;;;;;12.60;4.57;;;;;;;;;;10321277;28;20100;-74
2022/03/18 12:14:02;;;;;;;22.00;5.45;;;;;;;;;;10337157;28;20854;-72
2022/03/18 12:19:11;;;;;;;16.27;5.72;;;;;;;;;;10339091;28;20794;-73
2022/03/18 12:24:13;;;;;;;13.30;4.80;;;;;;;;;;10339188;28;20120;-72
2022/03/18 12:29:18;;;;;;;12.35;4.78;;;;;;;;;;10337311;28;20049;-72
2022/03/18 12:34:20;;;;;;;15.68;5.38;;;;;;;;;;10333862;28;20054;-73
2022/03/18 12:39:25;;;;;;;15.20;5.20;;;;;;;;;;10338559;28;20190;-73
2022/03/18 12:44:30;;;;;;;12.23;4.40;;;;;;;;;;10337660;28;20100;-73
2022/03/18 12:49:35;;;;;;;17.35;5.22;;;;;;;;;;10340836;28;20104;-73
2022/03/18 12:54:37;;;;;;;14.95;5.95;;;;;;;;;;10337791;28;20054;-71
2022/03/18 12:59:54;;;;;;;10.05;4.57;;;;;;;;;;10323909;28;20050;-72
2022/03/18 13:05:17;;;;;;;12.90;5.18;;;;;;;;;;10344390;28;20456;-72
2022/03/18 13:10:19;;;;;;;12.60;4.63;;;;;;;;;;10305549;28;20083;-71
2022/03/18 13:15:21;;;;;;;13.02;4.53;;;;;;;;;;10337759;28;20524;-71
2022/03/18 13:20:24;;;;;;;11.05;4.38;;;;;;;;;;10333891;28;20151;-71
2022/03/18 13:25:28;;;;;;;10.13;3.15;;;;;;;;;;10321886;28;20050;-71
2022/03/18 13:35:51;;;;;;;13.45;3.20;;;;;;;;;;10338001;28;20052;-73
2022/03/18 13:40:57;;;;;;;11.18;2.38;;;;;;;;;;10342122;28;20061;-73
2022/03/18 13:46:11;;;;;;;8.88;2.33;;;;;;;;;;10345732;28;20524;-68
2022/03/18 13:51:46;;;;;;;8.98;2.72;;;;;;;;;;10340502;28;20470;-69
2022/03/18 13:56:57;;;;;;;14.10;2.50;;;;;;;;;;10323667;28;20046;-70
2022/03/18 14:02:06;;;;;;;10.45;3.08;;;;;;;;;;10343431;28;20128;-70
2022/03/18 14:07:09;;;;;;;11.73;3.03;;;;;;;;;;10348256;28;20513;-70
2022/03/18 14:12:19;;;;;;;9.20;2.42;;;;;;;;;;10339198;28;20062;-68
2022/03/18 14:17:24;;;;;;;7.63;1.90;;;;;;;;;;10351608;28;20046;-69
2022/03/18 14:22:30;;;;;;;9.80;3.35;;;;;;;;;;10347232;28;20048;-69
2022/03/18 14:27:31;;;;;;;10.65;3.88;;;;;;;;;;10346115;28;20659;-68
2022/03/18 14:32:32;;;;;;;11.60;3.42;;;;;;;;;;10339218;28;20045;-68
2022/03/18 14:37:35;;;;;;;13.07;3.00;;;;;;;;;;10350617;28;20046;-68
2022/03/18 14:42:37;;;;;;;10.07;2.63;;;;;;;;;;10349240;28;20398;-68
2022/03/18 14:47:39;;;;;;;13.65;2.30;;;;;;;;;;10335840;28;20056;-69
2022/03/18 14:52:40;;;;;;;11.68;2.95;;;;;;;;;;10342366;28;20497;-65
2022/03/18 14:57:45;;;;;;;10.85;2.40;;;;;;;;;;10349664;28;20418;-66
2022/03/18 15:02:50;;;;;;;9.05;2.35;;;;;;;;;;10343298;28;20049;-67
2022/03/18 15:07:52;;;;;;;10.40;2.40;;;;;;;;;;10350004;28;20061;-67
2022/03/18 15:12:54;;;;;;;10.50;2.30;;;;;;;;;;10344921;28;20042;-67
2022/03/18 15:17:56;;;;;;;11.65;2.50;;;;;;;;;;10349029;28;20072;-67
2022/03/18 15:22:58;;;;;;;11.20;3.08;;;;;;;;;;10343896;28;20836;-67
2022/03/18 15:28:01;;;;;;;9.13;2.47;;;;;;;;;;10340866;28;20056;-67
2022/03/18 15:33:08;;;;;;;11.93;2.45;;;;;;;;;;10342494;28;20473;-67
2022/03/18 15:38:10;;;;;;;13.20;2.05;;;;;;;;;;10350533;28;20460;-67
2022/03/18 15:43:11;;;;;;;13.15;2.22;;;;;;;;;;10345953;28;20054;-67
2022/03/18 15:48:14;;;;;;;8.63;1.92;;;;;;;;;;10345716;28;20118;-66
2022/03/18 15:53:16;;;;;;;10.27;2.17;;;;;;;;;;10327397;28;20112;-72
2022/03/18 15:58:18;;;;;;;14.48;2.78;;;;;;;;;;10344786;28;20672;-74
2022/03/18 16:03:19;;;;;;;10.20;2.80;;;;;;;;;;10353511;28;20049;-71
2022/03/18 16:08:21;;;;;;;10.48;2.75;;;;;;;;;;10335104;28;20073;-72
2022/03/18 16:13:26;;;;;;;11.48;2.42;;;;;;;;;;10310044;28;20500;-71
2022/03/18 16:18:29;;;;;;;10.93;4.03;;;;;;;;;;10330443;28;20106;-71
2022/03/18 16:23:32;;;;;;;12.60;3.33;;;;;;;;;;10339202;28;20128;-71
2022/03/18 16:28:34;;;;;;;9.77;2.25;;;;;;;;;;10327973;28;20057;-70
2022/03/18 16:33:35;;;;;;;13.55;3.33;;;;;;;;;;10337533;28;20049;-73
2022/03/18 16:38:37;;;;;;;11.38;2.58;;;;;;;;;;10342236;28;20038;-73
2022/03/18 16:43:38;;;;;;;16.52;4.72;;;;;;;;;;10340534;28;20049;-73
2022/03/18 16:54:06;;;;;;;12.25;3.05;;;;;;;;;;10342157;28;20064;-72
2022/03/18 16:59:07;;;;;;;18.65;4.28;;;;;;;;;;10344183;28;20559;-73
2022/03/18 17:04:10;;;;;;;18.98;3.35;;;;;;;;;;10351766;28;20053;-73
2022/03/18 17:09:14;;;;;;;17.45;2.95;;;;;;;;;;10346642;28;20054;-72
2022/03/18 17:14:16;;;;;;;6.72;2.38;;;;;;;;;;10340307;28;20050;-74
2022/03/18 17:19:18;;;;;;;13.43;2.42;;;;;;;;;;10329992;28;20056;-72
2022/03/18 17:24:20;;;;;;;7.22;2.25;;;;;;;;;;10314928;28;20046;-72
2022/03/18 17:29:22;;;;;;;17.92;2.80;;;;;;;;;;10337936;28;20527;-74
2022/03/18 17:34:23;;;;;;;15.00;2.78;;;;;;;;;;10329626;28;20046;-73
2022/03/18 17:39:25;;;;;;;14.25;3.15;;;;;;;;;;10344330;28;20108;-73
2022/03/18 17:44:26;;;;;;;21.38;2.80;;;;;;;;;;10338105;28;20048;-73
2022/03/18 17:49:28;;;;;;;12.27;2.63;;;;;;;;;;10348292;28;20424;-73
2022/03/18 17:54:30;;;;;;;14.05;2.58;;;;;;;;;;10344473;28;20049;-73
2022/03/18 17:59:31;;;;;;;15.80;2.65;;;;;;;;;;10344084;28;20048;-74
2022/03/18 18:04:33;;;;;;;24.55;3.40;;;;;;;;;;10356616;28;20045;-73
2022/03/18 18:09:34;;;;;;;13.52;3.05;;;;;;;;;;10346800;28;20046;-72
2022/03/18 18:14:36;;;;;;;16.42;3.03;;;;;;;;;;10345741;28;20080;-73
2022/03/18 18:24:59;;;;;;;23.85;4.95;;;;;;;;;;10353673;28;20050;-73
2022/03/18 18:30:00;;;;;;;22.60;4.03;;;;;;;;;;10319921;28;20141;-73
2022/03/18 18:35:02;;;;;;;22.00;4.15;;;;;;;;;;10342897;28;20693;-71
2022/03/18 18:40:05;;;;;;;18.02;4.65;;;;;;;;;;10366439;28;20114;-71
2022/03/18 18:45:07;;;;;;;14.02;2.75;;;;;;;;;;10339330;28;20077;-73
2022/03/18 18:50:12;;;;;;;22.10;3.47;;;;;;;;;;10344144;28;20040;-73
2022/03/18 18:55:18;;;;;;;16.80;4.20;;;;;;;;;;10337240;28;20039;-73
2022/03/18 19:00:20;;;;;;;20.13;4.97;;;;;;;;;;10334518;28;20157;-72
2022/03/18 19:05:21;;;;;;;26.33;3.72;;;;;;;;;;10346068;28;20532;-72
2022/03/18 19:10:22;;;;;;;17.92;3.85;;;;;;;;;;10328826;28;20824;-72
2022/03/18 19:15:24;;;;;;;15.70;3.28;;;;;;;;;;10335674;28;20046;-73
2022/03/18 19:20:25;;;;;;;19.98;3.38;;;;;;;;;;10349432;28;20038;-72
2022/03/18 19:25:30;;;;;;;21.77;2.90;;;;;;;;;;10342744;28;20053;-72
2022/03/18 19:30:31;;;;;;;24.83;3.45;;;;;;;;;;10331590;28;20050;-72
2022/03/18 19:35:34;;;;;;;15.55;2.88;;;;;;;;;;10327713;28;20049;-72
2022/03/18 19:40:36;;;;;;;17.77;3.05;;;;;;;;;;10328146;28;20046;-72
2022/03/18 19:45:39;;;;;;;23.10;3.25;;;;;;;;;;10333532;28;20049;-72
2022/03/18 19:50:43;;;;;;;16.38;3.13;;;;;;;;;;10332763;28;20043;-73
2022/03/18 20:01:07;;;;;;;19.45;3.33;;;;;;;;;;10320820;28;20057;-71
2022/03/18 20:06:09;;;;;;;17.45;4.05;;;;;;;;;;10346499;28;20265;-72
2022/03/18 20:11:11;;;;;;;14.45;2.75;;;;;;;;;;10312892;28;20046;-72
2022/03/18 20:16:12;;;;;;;14.07;3.42;;;;;;;;;;10331053;28;20651;-72
2022/03/18 20:21:14;;;;;;;21.60;3.92;;;;;;;;;;10343778;28;20042;-72
2022/03/18 20:26:16;;;;;;;18.55;3.03;;;;;;;;;;10327329;28;20048;-72
2022/03/18 20:31:17;;;;;;;17.50;3.35;;;;;;;;;;10325048;28;20052;-72
2022/03/18 20:36:19;;;;;;;15.13;2.97;;;;;;;;;;10325532;28;20149;-71
2022/03/18 20:41:20;;;;;;;14.50;3.22;;;;;;;;;;10320153;28;20058;-71
2022/03/18 20:46:24;;;;;;;17.35;2.65;;;;;;;;;;10339089;28;20053;-72
2022/03/18 20:51:27;;;;;;;21.35;2.70;;;;;;;;;;10332277;28;20057;-71
2022/03/18 20:56:28;;;;;;;16.67;3.13;;;;;;;;;;10346121;28;20057;-71
2022/03/18 21:01:30;;;;;;;14.73;2.83;;;;;;;;;;10317439;28;20050;-71
2022/03/18 21:06:33;;;;;;;19.63;3.17;;;;;;;;;;10326488;28;20050;-72
2022/03/18 21:11:35;;;;;;;14.88;2.53;;;;;;;;;;10322804;28;20549;-71
2022/03/18 21:16:36;;;;;;;21.42;2.90;;;;;;;;;;10332953;28;20088;-72
2022/03/18 21:21:38;;;;;;;13.00;2.70;;;;;;;;;;10341177;28;20046;-72
2022/03/18 21:32:00;;;;;;;14.75;3.00;;;;;;;;;;10326540;28;21006;-72
2022/03/18 21:37:01;;;;;;;11.02;2.42;;;;;;;;;;10341339;28;20037;-71
2022/03/18 21:42:04;;;;;;;16.27;3.40;;;;;;;;;;10337134;28;20108;-71
2022/03/18 21:47:05;;;;;;;16.33;2.53;;;;;;;;;;10317093;28;20129;-72
2022/03/18 21:52:07;;;;;;;11.23;2.88;;;;;;;;;;10340388;28;20050;-71
2022/03/18 21:57:08;;;;;;;15.70;2.95;;;;;;;;;;10324073;28;20510;-72
2022/03/18 22:02:10;;;;;;;13.07;2.40;;;;;;;;;;10320866;28;20383;-71
2022/03/18 22:07:12;;;;;;;11.20;3.03;;;;;;;;;;10311837;28;20117;-72
2022/03/18 22:12:13;;;;;;;17.88;2.63;;;;;;;;;;10314533;28;20062;-72
2022/03/18 22:17:14;;;;;;;11.88;3.20;;;;;;;;;;10315537;28;20042;-72
2022/03/18 22:22:16;;;;;;;17.17;3.63;;;;;;;;;;10314185;28;20558;-72
2022/03/18 22:27:18;;;;;;;11.68;2.85;;;;;;;;;;10315679;28;20049;-71
2022/03/18 22:32:19;;;;;;;16.83;3.33;;;;;;;;;;10314887;28;20137;-72
2022/03/18 22:37:20;;;;;;;12.88;3.10;;;;;;;;;;10328419;28;20085;-72
2022/03/18 22:42:27;;;;;;;14.00;3.72;;;;;;;;;;10322714;28;20054;-72
2022/03/18 22:47:29;;;;;;;13.48;3.10;;;;;;;;;;10322522;28;20046;-72
2022/03/18 22:52:32;;;;;;;7.50;2.35;;;;;;;;;;10327700;28;20057;-72
2022/03/18 22:57:33;;;;;;;22.08;2.95;;;;;;;;;;10321749;28;20052;-72
2022/03/18 23:02:35;;;;;;;12.93;3.17;;;;;;;;;;10334108;28;20054;-72
2022/03/18 23:07:37;;;;;;;18.25;2.80;;;;;;;;;;10330338;28;20042;-72
2022/03/18 23:12:38;;;;;;;10.50;2.80;;;;;;;;;;10322762;28;20056;-72
2022/03/18 23:17:39;;;;;;;13.63;3.08;;;;;;;;;;10321600;28;20065;-71
2022/03/18 23:22:44;;;;;;;11.90;2.53;;;;;;;;;;10331666;28;20058;-72
2022/03/18 23:27:45;;;;;;;12.70;2.65;;;;;;;;;;10320598;28;20046;-71
2022/03/18 23:32:47;;;;;;;12.48;3.60;;;;;;;;;;10326516;28;20046;-72
2022/03/18 23:37:48;;;;;;;15.43;3.53;;;;;;;;;;10319469;28;20073;-71
2022/03/18 23:42:50;;;;;;;18.05;8.88;;;;;;;;;;10326312;28;20073;-72
2022/03/18 23:47:51;;;;;;;12.73;4.13;;;;;;;;;;10319513;28;20046;-72
2022/03/18 23:52:52;;;;;;;14.77;4.18;;;;;;;;;;10319967;28;20121;-72
2022/03/18 23:57:54;;;;;;;13.70;4.13;;;;;;;;;;10320312;28;20073;-72
